Back to Top

Language: 

My Weather Underground Personal Weather Station Historical Data with Graphs...

Delerius Weather Station Historical Data
Daily Summary for May 24, 2017 Units:  Metric    English   Both
« Previous Day
Next Day »
Daily Weekly Monthly Yearly Custom
  High: Low: Average:
Temperature: 24.3 °C 13.8 °C 18.9 °C
Dew Point: 16.2 °C 10.8 °C 14.2 °C
Humidity: 89 % 58 % 75 %
Wind Speed: 17.7 km/h 0 km/h 9.8 km/h
Wind Gust: 33.8 km/h - -
Wind:- - WNW
Pressure: 1025.3 hPa 1022.6 hPa -
Precipitation: 0 mm    
Historical Graphs
 
 
Tabular Data for May 24, 2017
Time Temperature Dew Point Pressure Wind Wind Speed Wind Gust Humidity Rainfall Rate (Hourly) solar Conditions
00:02 14.1 °C 10.9 °C 1022.6 hPa WNW 6.4 km/h 11.3 km/h 81 % 0 mm 0 W/m2
00:07 14.1 °C 10.9 °C 1022.9 hPa WNW 6.4 km/h 11.3 km/h 81 % 0 mm 0 W/m2
00:12 14.1 °C 11.1 °C 1022.6 hPa WNW 3.2 km/h 9.7 km/h 82 % 0 mm 0 W/m2
00:17 14 °C 11 °C 1022.9 hPa WNW 1.6 km/h 6.4 km/h 82 % 0 mm 0 W/m2
00:22 13.8 °C 10.8 °C 1022.9 hPa Calm   3.2 km/h 82 % 0 mm 0 W/m2
00:27 13.8 °C 10.8 °C 1022.9 hPa Calm   3.2 km/h 82 % 0 mm 0 W/m2
00:32 13.8 °C 11.2 °C 1022.9 hPa WNW 3.2 km/h 16.1 km/h 84 % 0 mm 0 W/m2
00:37 14 °C 11.5 °C 1022.9 hPa WNW 6.4 km/h 16.1 km/h 85 % 0 mm 0 W/m2
00:42 14.3 °C 11.8 °C 1022.9 hPa WNW 9.7 km/h 20.9 km/h 85 % 0 mm 0 W/m2
00:47 14.5 °C 11.8 °C 1023.2 hPa WNW 11.3 km/h 20.9 km/h 84 % 0 mm 0 W/m2
00:52 14.7 °C 12 °C 1022.9 hPa WNW 11.3 km/h 17.7 km/h 84 % 0 mm 0 W/m2
00:57 14.8 °C 11.9 °C 1022.9 hPa WNW 8 km/h 17.7 km/h 83 % 0 mm 0 W/m2
01:02 14.8 °C 11.9 °C 1022.9 hPa WNW 6.4 km/h 17.7 km/h 83 % 0 mm 0 W/m2
01:07 14.9 °C 12.1 °C 1022.9 hPa WNW 8 km/h 17.7 km/h 83 % 0 mm 0 W/m2
01:12 14.9 °C 12.1 °C 1022.9 hPa WNW 8 km/h 17.7 km/h 83 % 0 mm 0 W/m2
01:17 14.9 °C 12.1 °C 1022.9 hPa WNW 8 km/h 17.7 km/h 83 % 0 mm 0 W/m2
01:22 15 °C 12.1 °C 1022.9 hPa WNW 6.4 km/h 17.7 km/h 83 % 0 mm 0 W/m2
01:27 15.1 °C 12.2 °C 1022.9 hPa WNW 4.8 km/h 14.5 km/h 83 % 0 mm 0 W/m2
01:32 15.1 °C 12.2 °C 1022.9 hPa West 4.8 km/h 11.3 km/h 83 % 0 mm 0 W/m2
01:37 15.1 °C 12.2 °C 1022.9 hPa West 3.2 km/h 9.7 km/h 83 % 0 mm 0 W/m2
01:42 15.1 °C 12.2 °C 1022.6 hPa WNW 4.8 km/h 12.9 km/h 83 % 0 mm 0 W/m2
01:47 15.1 °C 12.2 °C 1022.6 hPa WNW 8 km/h 17.7 km/h 83 % 0 mm 0 W/m2
01:52 15.2 °C 12.3 °C 1022.9 hPa WNW 9.7 km/h 19.3 km/h 83 % 0 mm 0 W/m2
01:57 15.4 °C 12.5 °C 1022.9 hPa WNW 14.5 km/h 32.2 km/h 83 % 0 mm 0 W/m2
02:02 15.6 °C 12.6 °C 1022.6 hPa WNW 14.5 km/h 32.2 km/h 82 % 0 mm 0 W/m2
02:07 15.6 °C 12.6 °C 1022.9 hPa WNW 11.3 km/h 22.5 km/h 82 % 0 mm 0 W/m2
02:13 15.6 °C 12.3 °C 1022.6 hPa WNW 12.9 km/h 25.7 km/h 81 % 0 mm 0 W/m2
02:18 15.6 °C 12.3 °C 1022.6 hPa WNW 14.5 km/h 25.7 km/h 81 % 0 mm 0 W/m2
02:19 15.5 °C 12.3 °C 1022.6 hPa WNW 14.5 km/h 24.1 km/h 81 % 0 mm 0 W/m2
02:24 15.4 °C 12.2 °C 1022.6 hPa WNW 12.9 km/h 20.9 km/h 81 % 0 mm 0 W/m2
02:29 15.3 °C 12.2 °C 1022.6 hPa WNW 11.3 km/h 19.3 km/h 82 % 0 mm 0 W/m2
02:34 15.3 °C 12.2 °C 1022.6 hPa WNW 12.9 km/h 25.7 km/h 82 % 0 mm 0 W/m2
02:39 15.2 °C 12.2 °C 1022.6 hPa WNW 14.5 km/h 25.7 km/h 82 % 0 mm 0 W/m2
02:44 15.2 °C 12.2 °C 1022.6 hPa West 14.5 km/h 25.7 km/h 82 % 0 mm 0 W/m2
02:50 15.2 °C 12.2 °C 1022.9 hPa West 16.1 km/h 25.7 km/h 82 % 0 mm 0 W/m2
02:55 15.1 °C 12.1 °C 1022.9 hPa WNW 16.1 km/h 29 km/h 82 % 0 mm 0 W/m2
03:00 15.1 °C 12.1 °C 1022.9 hPa West 14.5 km/h 29 km/h 82 % 0 mm 0 W/m2
03:05 15 °C 12.1 °C 1022.9 hPa West 12.9 km/h 20.9 km/h 83 % 0 mm 0 W/m2
03:10 14.9 °C 12.1 °C 1022.9 hPa West 11.3 km/h 20.9 km/h 83 % 0 mm 0 W/m2
03:15 14.8 °C 11.9 °C 1022.9 hPa West 11.3 km/h 17.7 km/h 83 % 0 mm 0 W/m2
03:20 14.7 °C 12 °C 1022.9 hPa WNW 11.3 km/h 24.1 km/h 84 % 0 mm 0 W/m2
03:25 14.7 °C 12 °C 1022.9 hPa WNW 12.9 km/h 24.1 km/h 84 % 0 mm 0 W/m2
03:30 14.7 °C 12 °C 1022.9 hPa WNW 12.9 km/h 19.3 km/h 84 % 0 mm 0 W/m2
03:35 14.6 °C 11.9 °C 1022.9 hPa WNW 11.3 km/h 19.3 km/h 84 % 0 mm 0 W/m2
03:40 14.6 °C 11.9 °C 1023.2 hPa WNW 8 km/h 14.5 km/h 84 % 0 mm 0 W/m2
03:45 14.5 °C 12 °C 1023.2 hPa West 8 km/h 14.5 km/h 85 % 0 mm 0 W/m2
03:50 14.5 °C 12 °C 1022.9 hPa West 9.7 km/h 14.5 km/h 85 % 0 mm 0 W/m2
03:55 14.4 °C 11.9 °C 1023.2 hPa West 9.7 km/h 16.1 km/h 85 % 0 mm 0 W/m2
04:00 14.4 °C 12.1 °C 1023.2 hPa WNW 9.7 km/h 16.1 km/h 86 % 0 mm 0 W/m2
04:05 14.5 °C 12.2 °C 1023.2 hPa WNW 8 km/h 16.1 km/h 86 % 0 mm 0 W/m2
04:10 14.6 °C 12.3 °C 1023.2 hPa WNW 9.7 km/h 19.3 km/h 86 % 0 mm 0 W/m2
04:15 14.7 °C 12.6 °C 1023.2 hPa WNW 11.3 km/h 20.9 km/h 87 % 0 mm 0 W/m2
04:20 14.8 °C 12.5 °C 1023.2 hPa WNW 11.3 km/h 20.9 km/h 86 % 0 mm 0 W/m2
04:25 14.9 °C 12.6 °C 1023.2 hPa WNW 11.3 km/h 19.3 km/h 86 % 0 mm 0 W/m2
04:30 15.1 °C 12.8 °C 1023.2 hPa WNW 12.9 km/h 19.3 km/h 86 % 0 mm 0 W/m2
04:35 15.2 °C 12.9 °C 1023.2 hPa West 12.9 km/h 22.5 km/h 86 % 0 mm 0 W/m2
04:40 15.2 °C 12.7 °C 1022.9 hPa West 14.5 km/h 29 km/h 85 % 0 mm 0 W/m2
04:45 15.2 °C 12.7 °C 1022.9 hPa West 14.5 km/h 29 km/h 85 % 0 mm 0 W/m2
04:50 15.3 °C 12.8 °C 1023.2 hPa West 12.9 km/h 22.5 km/h 85 % 0 mm 5 W/m2
04:55 15.2 °C 12.7 °C 1023.2 hPa West 11.3 km/h 22.5 km/h 85 % 0 mm 5 W/m2
05:00 15.2 °C 12.7 °C 1023.2 hPa West 9.7 km/h 19.3 km/h 85 % 0 mm 7 W/m2
05:06 15.1 °C 12.6 °C 1023.2 hPa West 11.3 km/h 20.9 km/h 85 % 0 mm 9 W/m2
05:11 15.1 °C 12.6 °C 1023.2 hPa West 11.3 km/h 20.9 km/h 85 % 0 mm 11 W/m2
05:16 15 °C 12.7 °C 1023.2 hPa West 9.7 km/h 17.7 km/h 86 % 0 mm 14 W/m2
05:21 14.9 °C 12.6 °C 1023.6 hPa WNW 9.7 km/h 17.7 km/h 86 % 0 mm 16 W/m2
05:26 14.8 °C 12.5 °C 1023.6 hPa WNW 9.7 km/h 16.1 km/h 86 % 0 mm 19 W/m2
05:31 14.8 °C 12.7 °C 1023.6 hPa WNW 9.7 km/h 16.1 km/h 87 % 0 mm 25 W/m2
05:36 14.7 °C 12.6 °C 1023.6 hPa WNW 8 km/h 14.5 km/h 87 % 0 mm 28 W/m2
05:41 14.7 °C 12.6 °C 1023.6 hPa WNW 6.4 km/h 12.9 km/h 87 % 0 mm 32 W/m2
05:46 14.7 °C 12.6 °C 1023.6 hPa WNW 4.8 km/h 12.9 km/h 87 % 0 mm 37 W/m2
05:51 14.7 °C 12.6 °C 1023.6 hPa WNW 4.8 km/h 12.9 km/h 87 % 0 mm 44 W/m2
05:56 14.7 °C 12.6 °C 1023.6 hPa West 4.8 km/h 12.9 km/h 87 % 0 mm 44 W/m2
06:01 14.7 °C 12.6 °C 1023.9 hPa West 3.2 km/h 11.3 km/h 87 % 0 mm 56 W/m2
06:06 14.7 °C 12.6 °C 1023.9 hPa WNW 3.2 km/h 8 km/h 87 % 0 mm 67 W/m2
06:11 14.8 °C 12.8 °C 1023.9 hPa WNW 1.6 km/h 8 km/h 88 % 0 mm 76 W/m2
06:16 14.8 °C 12.8 °C 1023.9 hPa Calm   8 km/h 88 % 0 mm 88 W/m2
06:21 14.9 °C 12.9 °C 1023.9 hPa Calm   4.8 km/h 88 % 0 mm 77 W/m2
06:26 15 °C 13 °C 1023.9 hPa WNW 3.2 km/h 9.7 km/h 88 % 0 mm 100 W/m2
06:31 15.2 °C 13.1 °C 1024.3 hPa WNW 4.8 km/h 11.3 km/h 87 % 0 mm 97 W/m2
06:36 15.3 °C 13.2 °C 1024.3 hPa WNW 6.4 km/h 11.3 km/h 87 % 0 mm 84 W/m2
06:41 15.4 °C 13.2 °C 1024.3 hPa WNW 6.4 km/h 11.3 km/h 87 % 0 mm 74 W/m2
06:46 15.5 °C 13.3 °C 1024.3 hPa WNW 4.8 km/h 11.3 km/h 87 % 0 mm 67 W/m2
06:51 15.6 °C 13.3 °C 1024.3 hPa WNW 3.2 km/h 9.7 km/h 86 % 0 mm 74 W/m2
06:53 15.6 °C 13.3 °C 1024.3 hPa West 3.2 km/h 9.7 km/h 86 % 0 mm 67 W/m2
06:58 15.7 °C 13.4 °C 1024.3 hPa West 3.2 km/h 8 km/h 86 % 0 mm 109 W/m2
07:03 15.7 °C 13.4 °C 1024.3 hPa West 4.8 km/h 11.3 km/h 86 % 0 mm 95 W/m2
07:08 15.8 °C 13.4 °C 1024.3 hPa West 6.4 km/h 11.3 km/h 86 % 0 mm 86 W/m2
07:13 15.9 °C 13.6 °C 1024.3 hPa West 8 km/h 14.5 km/h 86 % 0 mm 84 W/m2
07:18 15.9 °C 13.6 °C 1024.3 hPa West 8 km/h 14.5 km/h 86 % 0 mm 98 W/m2
07:23 16 °C 13.7 °C 1024.3 hPa West 6.4 km/h 14.5 km/h 86 % 0 mm 121 W/m2
07:29 16.1 °C 13.8 °C 1024.3 hPa WNW 8 km/h 16.1 km/h 86 % 0 mm 146 W/m2
07:34 16.2 °C 13.7 °C 1024.3 hPa WNW 11.3 km/h 20.9 km/h 85 % 0 mm 120 W/m2
07:39 16.2 °C 13.7 °C 1024.3 hPa WNW 11.3 km/h 20.9 km/h 85 % 0 mm 120 W/m2
07:44 16.3 °C 13.8 °C 1024.3 hPa WNW 8 km/h 14.5 km/h 85 % 0 mm 179 W/m2
07:49 16.3 °C 13.8 °C 1024.6 hPa West 6.4 km/h 16.1 km/h 85 % 0 mm 185 W/m2
07:53 16.3 °C 13.8 °C 1024.6 hPa West 8 km/h 16.1 km/h 85 % 0 mm 178 W/m2
07:58 16.3 °C 13.8 °C 1024.6 hPa West 9.7 km/h 16.1 km/h 85 % 0 mm 144 W/m2
08:03 16.4 °C 13.9 °C 1024.6 hPa West 9.7 km/h 14.5 km/h 85 % 0 mm 174 W/m2
08:08 16.4 °C 13.9 °C 1024.6 hPa West 9.7 km/h 16.1 km/h 85 % 0 mm 132 W/m2
08:13 16.4 °C 13.9 °C 1024.6 hPa WSW 8 km/h 16.1 km/h 85 % 0 mm 183 W/m2
08:18 16.4 °C 13.9 °C 1024.6 hPa West 8 km/h 14.5 km/h 85 % 0 mm 149 W/m2
08:23 16.4 °C 13.9 °C 1024.6 hPa West 9.7 km/h 17.7 km/h 85 % 0 mm 135 W/m2
08:28 16.5 °C 13.9 °C 1024.6 hPa West 9.7 km/h 17.7 km/h 85 % 0 mm 121 W/m2
08:33 16.6 °C 13.9 °C 1024.9 hPa West 6.4 km/h 16.1 km/h 84 % 0 mm 93 W/m2
08:38 16.6 °C 13.9 °C 1024.9 hPa West 1.6 km/h 9.7 km/h 84 % 0 mm 90 W/m2
08:43 16.7 °C 14 °C 1024.9 hPa WNW 3.2 km/h 12.9 km/h 84 % 0 mm 153 W/m2
08:48 16.9 °C 14.2 °C 1024.6 hPa WNW 8 km/h 16.1 km/h 84 % 0 mm 320 W/m2
08:53 17.1 °C 14.4 °C 1024.6 hPa WNW 11.3 km/h 19.3 km/h 84 % 0 mm 230 W/m2
08:58 17.3 °C 14.4 °C 1024.9 hPa WNW 9.7 km/h 19.3 km/h 83 % 0 mm 207 W/m2
09:03 17.5 °C 14.4 °C 1024.9 hPa NW 6.4 km/h 17.7 km/h 82 % 0 mm 178 W/m2
09:08 17.6 °C 14.3 °C 1024.9 hPa WNW 8 km/h 19.3 km/h 81 % 0 mm 232 W/m2
09:13 17.7 °C 14.4 °C 1024.9 hPa WNW 9.7 km/h 19.3 km/h 81 % 0 mm 285 W/m2
09:18 17.8 °C 14.3 °C 1024.9 hPa WNW 12.9 km/h 20.9 km/h 80 % 0 mm 295 W/m2
09:23 17.9 °C 14.4 °C 1024.9 hPa WNW 11.3 km/h 20.9 km/h 80 % 0 mm 237 W/m2
09:28 18.1 °C 14.4 °C 1024.9 hPa WNW 8 km/h 17.7 km/h 79 % 0 mm 243 W/m2
09:33 18.3 °C 14.6 °C 1024.9 hPa WNW 9.7 km/h 19.3 km/h 79 % 0 mm 271 W/m2
09:38 18.4 °C 14.5 °C 1024.9 hPa WNW 11.3 km/h 20.9 km/h 78 % 0 mm 390 W/m2
09:43 18.7 °C 14.8 °C 1024.9 hPa WNW 12.9 km/h 20.9 km/h 78 % 0 mm 323 W/m2
09:48 18.9 °C 14.8 °C 1024.9 hPa WNW 12.9 km/h 20.9 km/h 77 % 0 mm 330 W/m2
09:49 18.9 °C 14.8 °C 1024.9 hPa WNW 12.9 km/h 22.5 km/h 77 % 0 mm 294 W/m2
09:54 19 °C 14.7 °C 1024.9 hPa WNW 12.9 km/h 24.1 km/h 76 % 0 mm 274 W/m2
09:59 19.1 °C 14.6 °C 1024.9 hPa WNW 12.9 km/h 24.1 km/h 75 % 0 mm 343 W/m2
10:04 19.1 °C 14.8 °C 1024.9 hPa WNW 11.3 km/h 22.5 km/h 76 % 0 mm 316 W/m2
10:09 19.2 °C 14.9 °C 1024.9 hPa WNW 9.7 km/h 19.3 km/h 76 % 0 mm 330 W/m2
10:14 19.4 °C 14.8 °C 1024.9 hPa WNW 11.3 km/h 20.9 km/h 75 % 0 mm 339 W/m2
10:19 19.3 °C 14.8 °C 1024.9 hPa West 12.9 km/h 24.1 km/h 75 % 0 mm 406 W/m2
10:24 19.4 °C 14.7 °C 1024.9 hPa West 14.5 km/h 24.1 km/h 74 % 0 mm 638 W/m2
10:29 19.8 °C 14.8 °C 1024.9 hPa WNW 14.5 km/h 29 km/h 73 % 0 mm 865 W/m2
10:34 20.1 °C 14.9 °C 1024.9 hPa WNW 16.1 km/h 29 km/h 72 % 0 mm 814 W/m2
10:39 20.2 °C 14.8 °C 1024.9 hPa WNW 16.1 km/h 29 km/h 71 % 0 mm 439 W/m2
10:44 20.4 °C 14.9 °C 1025.3 hPa WNW 14.5 km/h 24.1 km/h 71 % 0 mm 466 W/m2
10:49 20.3 °C 14.9 °C 1025.3 hPa WNW 12.9 km/h 22.5 km/h 71 % 0 mm 918 W/m2
10:54 20.5 °C 14.8 °C 1025.3 hPa WNW 12.9 km/h 24.1 km/h 70 % 0 mm 534 W/m2
10:59 20.6 °C 14.9 °C 1025.3 hPa WNW 12.9 km/h 24.1 km/h 70 % 0 mm 299 W/m2
11:04 20.6 °C 14.9 °C 1025.3 hPa NW 11.3 km/h 20.9 km/h 70 % 0 mm 418 W/m2
11:09 20.7 °C 15.1 °C 1025.3 hPa NW 11.3 km/h 19.3 km/h 70 % 0 mm 343 W/m2
11:14 20.8 °C 15.1 °C 1025.3 hPa NW 9.7 km/h 17.7 km/h 70 % 0 mm 369 W/m2
11:19 20.8 °C 15.1 °C 1025.3 hPa WNW 11.3 km/h 22.5 km/h 70 % 0 mm 346 W/m2
11:24 20.7 °C 15.1 °C 1025.3 hPa WNW 14.5 km/h 25.7 km/h 70 % 0 mm 976 W/m2
11:29 21.1 °C 15.4 °C 1025.3 hPa WNW 12.9 km/h 25.7 km/h 70 % 0 mm 357 W/m2
11:34 21.4 °C 15.2 °C 1025.3 hPa WNW 11.3 km/h 19.3 km/h 68 % 0 mm 962 W/m2
11:39 21.6 °C 15.4 °C 1025.3 hPa WNW 11.3 km/h 20.9 km/h 68 % 0 mm 478 W/m2
11:44 21.8 °C 15.6 °C 1025.3 hPa WNW 11.3 km/h 20.9 km/h 68 % 0 mm 1023 W/m2
11:49 21.8 °C 15.2 °C 1025.3 hPa NW 12.9 km/h 22.5 km/h 66 % 0 mm 327 W/m2
11:54 21.7 °C 15.1 °C 1025.3 hPa NW 14.5 km/h 24.1 km/h 66 % 0 mm 399 W/m2
11:59 21.6 °C 15.2 °C 1025.3 hPa NW 11.3 km/h 24.1 km/h 67 % 0 mm 522 W/m2
12:04 21.5 °C 15.1 °C 1025.3 hPa WNW 11.3 km/h 20.9 km/h 67 % 0 mm 330 W/m2
12:09 21.5 °C 15.1 °C 1024.9 hPa WNW 12.9 km/h 24.1 km/h 67 % 0 mm 1130 W/m2
12:14 21.7 °C 15.3 °C 1024.9 hPa West 14.5 km/h 33.8 km/h 67 % 0 mm 939 W/m2
12:19 21.9 °C 15.3 °C 1024.9 hPa West 17.7 km/h 33.8 km/h 66 % 0 mm 947 W/m2
12:24 22.2 °C 15.6 °C 1024.9 hPa WNW 16.1 km/h 24.1 km/h 66 % 0 mm 334 W/m2
12:28 22.2 °C 15.3 °C 1024.9 hPa WNW 14.5 km/h 29 km/h 65 % 0 mm 371 W/m2
12:33 22.2 °C 15.6 °C 1024.9 hPa WNW 16.1 km/h 29 km/h 66 % 0 mm 385 W/m2
12:38 22.2 °C 15.3 °C 1024.9 hPa WNW 16.1 km/h 29 km/h 65 % 0 mm 425 W/m2
12:43 22.2 °C 15.6 °C 1024.9 hPa WNW 16.1 km/h 25.7 km/h 66 % 0 mm 301 W/m2
12:48 22.2 °C 15.6 °C 1024.9 hPa WNW 14.5 km/h 25.7 km/h 66 % 0 mm 299 W/m2
12:53 22.1 °C 15.2 °C 1024.9 hPa NW 12.9 km/h 30.6 km/h 65 % 0 mm 274 W/m2
12:58 22.1 °C 15.4 °C 1024.9 hPa WNW 16.1 km/h 30.6 km/h 66 % 0 mm 295 W/m2
13:03 22.1 °C 15.4 °C 1024.9 hPa West 17.7 km/h 29 km/h 66 % 0 mm 448 W/m2
13:08 22.1 °C 15.4 °C 1024.9 hPa West 17.7 km/h 32.2 km/h 66 % 0 mm 448 W/m2
13:13 22.1 °C 15.4 °C 1024.9 hPa West 17.7 km/h 32.2 km/h 66 % 0 mm 816 W/m2
13:18 22.2 °C 15.6 °C 1024.9 hPa West 17.7 km/h 30.6 km/h 66 % 0 mm 816 W/m2
13:23 22.3 °C 15.4 °C 1024.9 hPa West 17.7 km/h 30.6 km/h 65 % 0 mm 483 W/m2
13:28 22.6 °C 15.7 °C 1024.9 hPa WNW 16.1 km/h 30.6 km/h 65 % 0 mm 392 W/m2
13:33 22.6 °C 15.2 °C 1024.9 hPa WNW 16.1 km/h 29 km/h 63 % 0 mm 267 W/m2
13:38 22.3 °C 15.4 °C 1024.9 hPa NW 16.1 km/h 29 km/h 65 % 0 mm 1018 W/m2
13:43 22.4 °C 15.3 °C 1024.9 hPa WNW 16.1 km/h 29 km/h 64 % 0 mm 227 W/m2
13:48 22.4 °C 15.3 °C 1024.9 hPa WNW 16.1 km/h 25.7 km/h 64 % 0 mm 923 W/m2
13:53 22.5 °C 15.3 °C 1024.9 hPa WNW 16.1 km/h 24.1 km/h 64 % 0 mm 944 W/m2
13:58 22.7 °C 15.8 °C 1024.9 hPa WNW 16.1 km/h 24.1 km/h 65 % 0 mm 1016 W/m2
14:03 22.9 °C 15.5 °C 1024.9 hPa WNW 14.5 km/h 25.7 km/h 63 % 0 mm 925 W/m2
14:08 23 °C 15.3 °C 1024.9 hPa WNW 16.1 km/h 32.2 km/h 62 % 0 mm 909 W/m2
14:13 22.9 °C 15.2 °C 1024.9 hPa WNW 17.7 km/h 32.2 km/h 62 % 0 mm 830 W/m2
14:18 23 °C 15.3 °C 1024.9 hPa WNW 17.7 km/h 30.6 km/h 62 % 0 mm 805 W/m2
14:23 23.2 °C 15.8 °C 1024.9 hPa WNW 14.5 km/h 29 km/h 63 % 0 mm 847 W/m2
14:29 23.3 °C 15.3 °C 1024.9 hPa WNW 12.9 km/h 22.5 km/h 61 % 0 mm 835 W/m2
14:34 23.6 °C 15.6 °C 1024.9 hPa WNW 14.5 km/h 24.1 km/h 61 % 0 mm 824 W/m2
14:39 23.7 °C 15.5 °C 1024.9 hPa WNW 16.1 km/h 29 km/h 60 % 0 mm 807 W/m2
14:44 23.7 °C 15.5 °C 1024.9 hPa West 16.1 km/h 29 km/h 60 % 0 mm 824 W/m2
14:49 23.9 °C 15.7 °C 1024.9 hPa WNW 14.5 km/h 22.5 km/h 60 % 0 mm 823 W/m2
14:54 24 °C 15.5 °C 1024.9 hPa WNW 12.9 km/h 24.1 km/h 59 % 0 mm 814 W/m2
14:59 24 °C 15.5 °C 1024.6 hPa WNW 14.5 km/h 29 km/h 59 % 0 mm 805 W/m2
15:04 24.1 °C 15.3 °C 1024.6 hPa WNW 14.5 km/h 29 km/h 58 % 0 mm 802 W/m2
15:09 24.1 °C 15.6 °C 1024.6 hPa WNW 14.5 km/h 25.7 km/h 59 % 0 mm 795 W/m2
15:14 24.2 °C 15.7 °C 1024.6 hPa WNW 14.5 km/h 24.1 km/h 59 % 0 mm 162 W/m2
15:19 24.1 °C 15.8 °C 1024.6 hPa WNW 14.5 km/h 22.5 km/h 60 % 0 mm 831 W/m2
15:24 23.8 °C 15.8 °C 1024.6 hPa WNW 12.9 km/h 22.5 km/h 61 % 0 mm 824 W/m2
15:25 23.8 °C 15.8 °C 1024.6 hPa WNW 12.9 km/h 22.5 km/h 61 % 0 mm 833 W/m2
15:30 23.8 °C 15.8 °C 1024.6 hPa WNW 12.9 km/h 25.7 km/h 61 % 0 mm 745 W/m2
15:35 23.8 °C 15.8 °C 1024.6 hPa WNW 12.9 km/h 25.7 km/h 61 % 0 mm 759 W/m2
15:36 23.8 °C 15.8 °C 1024.6 hPa WNW 12.9 km/h 25.7 km/h 61 % 0 mm 759 W/m2
15:41 23.8 °C 15.8 °C 1024.6 hPa WNW 12.9 km/h 25.7 km/h 61 % 0 mm 747 W/m2
15:46 23.9 °C 15.7 °C 1024.6 hPa WNW 14.5 km/h 25.7 km/h 60 % 0 mm 664 W/m2
15:51 24 °C 16 °C 1024.6 hPa WNW 14.5 km/h 24.1 km/h 61 % 0 mm 719 W/m2
15:56 24.2 °C 16.2 °C 1024.6 hPa WNW 12.9 km/h 25.7 km/h 61 % 0 mm 696 W/m2
16:01 24.3 °C 15.8 °C 1024.6 hPa WNW 12.9 km/h 25.7 km/h 59 % 0 mm 693 W/m2
16:06 24.2 °C 15.4 °C 1024.6 hPa WNW 12.9 km/h 30.6 km/h 58 % 0 mm 698 W/m2
16:11 24.2 °C 15.7 °C 1024.6 hPa WNW 14.5 km/h 30.6 km/h 59 % 0 mm 675 W/m2
16:16 24.2 °C 15.4 °C 1024.6 hPa NW 16.1 km/h 24.1 km/h 58 % 0 mm 664 W/m2
16:21 24.2 °C 15.7 °C 1024.6 hPa NW 16.1 km/h 24.1 km/h 59 % 0 mm 650 W/m2
16:26 24.2 °C 15.4 °C 1024.6 hPa WNW 14.5 km/h 22.5 km/h 58 % 0 mm 635 W/m2
16:31 24.3 °C 15.5 °C 1024.3 hPa NW 14.5 km/h 24.1 km/h 58 % 0 mm 635 W/m2
16:36 24.3 °C 15.5 °C 1024.6 hPa NW 14.5 km/h 25.7 km/h 58 % 0 mm 601 W/m2
16:41 24.3 °C 15.5 °C 1024.6 hPa NW 14.5 km/h 25.7 km/h 58 % 0 mm 594 W/m2
16:46 24.3 °C 15.5 °C 1024.3 hPa NW 14.5 km/h 22.5 km/h 58 % 0 mm 599 W/m2
16:51 24.3 °C 15.8 °C 1024.3 hPa WNW 14.5 km/h 22.5 km/h 59 % 0 mm 557 W/m2
16:56 24.3 °C 15.8 °C 1024.6 hPa WNW 12.9 km/h 20.9 km/h 59 % 0 mm 162 W/m2
17:01 24.1 °C 15.6 °C 1024.3 hPa WNW 11.3 km/h 22.5 km/h 59 % 0 mm 151 W/m2
17:06 23.9 °C 15.7 °C 1024.3 hPa WNW 11.3 km/h 22.5 km/h 60 % 0 mm 541 W/m2
17:11 23.9 °C 15.7 °C 1024.3 hPa WNW 11.3 km/h 20.9 km/h 60 % 0 mm 527 W/m2
17:16 24.1 °C 15.8 °C 1024.3 hPa WNW 11.3 km/h 20.9 km/h 60 % 0 mm 547 W/m2
17:21 24.2 °C 15.7 °C 1024.3 hPa NW 11.3 km/h 20.9 km/h 59 % 0 mm 512 W/m2
17:24 24.2 °C 15.9 °C 1024.3 hPa NW 11.3 km/h 17.7 km/h 60 % 0 mm 142 W/m2
17:29 24.1 °C 15.6 °C 1024.3 hPa NW 9.7 km/h 20.9 km/h 59 % 0 mm 466 W/m2
17:34 23.7 °C 15.7 °C 1024.3 hPa NW 9.7 km/h 20.9 km/h 61 % 0 mm 134 W/m2
17:39 23.6 °C 15.9 °C 1024.3 hPa NW 9.7 km/h 19.3 km/h 62 % 0 mm 462 W/m2
17:44 23.5 °C 15.8 °C 1024.3 hPa NW 11.3 km/h 20.9 km/h 62 % 0 mm 429 W/m2
17:49 23.6 °C 15.6 °C 1024.3 hPa NW 11.3 km/h 20.9 km/h 61 % 0 mm 425 W/m2
17:54 23.7 °C 15.7 °C 1024.3 hPa NW 11.3 km/h 24.1 km/h 61 % 0 mm 406 W/m2
17:59 23.7 °C 15.2 °C 1024.3 hPa West 14.5 km/h 24.1 km/h 59 % 0 mm 397 W/m2
18:04 23.6 °C 15.1 °C 1024.3 hPa West 14.5 km/h 24.1 km/h 59 % 0 mm 353 W/m2
18:09 23.6 °C 15.1 °C 1024.3 hPa WNW 14.5 km/h 24.1 km/h 59 % 0 mm 383 W/m2
18:14 23.6 °C 15.4 °C 1024.3 hPa WNW 14.5 km/h 24.1 km/h 60 % 0 mm 374 W/m2
18:19 23.6 °C 15.4 °C 1024.3 hPa WNW 12.9 km/h 20.9 km/h 60 % 0 mm 302 W/m2
18:24 23.5 °C 15.3 °C 1024.3 hPa WNW 12.9 km/h 22.5 km/h 60 % 0 mm 258 W/m2
18:25 23.5 °C 15.3 °C 1024.3 hPa WNW 12.9 km/h 22.5 km/h 60 % 0 mm 123 W/m2
18:30 23.2 °C 15.3 °C 1024.3 hPa WNW 12.9 km/h 22.5 km/h 61 % 0 mm 162 W/m2
18:36 23.2 °C 15.5 °C 1024.3 hPa WNW 11.3 km/h 19.3 km/h 62 % 0 mm 318 W/m2
18:41 23.2 °C 15.5 °C 1024.3 hPa WNW 8 km/h 17.7 km/h 62 % 0 mm 151 W/m2
18:46 23.2 °C 15.5 °C 1024.3 hPa WNW 8 km/h 16.1 km/h 62 % 0 mm 260 W/m2
18:51 23.1 °C 15.4 °C 1024.3 hPa WNW 9.7 km/h 17.7 km/h 62 % 0 mm 265 W/m2
18:56 23.1 °C 15.4 °C 1024.3 hPa WNW 11.3 km/h 17.7 km/h 62 % 0 mm 255 W/m2
19:01 23 °C 15.6 °C 1024.3 hPa WNW 9.7 km/h 17.7 km/h 63 % 0 mm 237 W/m2
19:06 23 °C 15.6 °C 1024.3 hPa WNW 8 km/h 16.1 km/h 63 % 0 mm 220 W/m2
19:11 23.1 °C 15.7 °C 1024.3 hPa WNW 8 km/h 16.1 km/h 63 % 0 mm 202 W/m2
19:16 23 °C 15.6 °C 1024.3 hPa WNW 9.7 km/h 16.1 km/h 63 % 0 mm 192 W/m2
19:21 22.9 °C 15.5 °C 1024.3 hPa WNW 11.3 km/h 17.7 km/h 63 % 0 mm 174 W/m2
19:26 22.8 °C 15.4 °C 1024.3 hPa NW 11.3 km/h 19.3 km/h 63 % 0 mm 162 W/m2
19:31 22.8 °C 15.4 °C 1024.3 hPa NW 9.7 km/h 19.3 km/h 63 % 0 mm 155 W/m2
19:36 22.7 °C 15.6 °C 1024.3 hPa NW 8 km/h 16.1 km/h 64 % 0 mm 142 W/m2
19:41 22.7 °C 15.6 °C 1024.3 hPa NW 8 km/h 16.1 km/h 64 % 0 mm 130 W/m2
19:46 22.6 °C 15.7 °C 1024.3 hPa NW 6.4 km/h 12.9 km/h 65 % 0 mm 118 W/m2
19:51 22.6 °C 15.7 °C 1024.3 hPa NW 6.4 km/h 11.3 km/h 65 % 0 mm 77 W/m2
19:56 22.5 °C 15.6 °C 1024.3 hPa NW 6.4 km/h 14.5 km/h 65 % 0 mm 42 W/m2
20:01 22.2 °C 15.6 °C 1024.3 hPa NW 6.4 km/h 14.5 km/h 66 % 0 mm 37 W/m2
20:06 22 °C 15.6 °C 1024.3 hPa NW 6.4 km/h 12.9 km/h 67 % 0 mm 33 W/m2
20:11 21.7 °C 15.6 °C 1024.3 hPa NW 6.4 km/h 12.9 km/h 68 % 0 mm 32 W/m2
20:16 21.4 °C 15.5 °C 1024.3 hPa NW 8 km/h 14.5 km/h 69 % 0 mm 30 W/m2
20:21 21.2 °C 15.3 °C 1024.3 hPa NW 8 km/h 14.5 km/h 69 % 0 mm 26 W/m2
20:26 20.9 °C 15.2 °C 1024.3 hPa NW 6.4 km/h 16.1 km/h 70 % 0 mm 25 W/m2
20:27 20.9 °C 15.2 °C 1024.3 hPa NW 6.4 km/h 16.1 km/h 70 % 0 mm 25 W/m2
20:32 20.7 °C 15.3 °C 1024.3 hPa NW 6.4 km/h 16.1 km/h 71 % 0 mm 23 W/m2
20:37 20.5 °C 15.3 °C 1024.3 hPa NW 6.4 km/h 11.3 km/h 72 % 0 mm 21 W/m2
20:42 20.3 °C 15.1 °C 1024.3 hPa NW 6.4 km/h 11.3 km/h 72 % 0 mm 18 W/m2
20:47 20.1 °C 15.1 °C 1024.3 hPa WNW 4.8 km/h 11.3 km/h 73 % 0 mm 16 W/m2
20:52 19.9 °C 15.1 °C 1024.3 hPa NW 4.8 km/h 11.3 km/h 74 % 0 mm 14 W/m2
20:57 19.8 °C 15.1 °C 1024.3 hPa NW 4.8 km/h 11.3 km/h 74 % 0 mm 12 W/m2
21:02 19.5 °C 14.9 °C 1024.3 hPa NW 6.4 km/h 12.9 km/h 75 % 0 mm 9 W/m2
21:07 19.3 °C 14.9 °C 1024.6 hPa NW 8 km/h 14.5 km/h 76 % 0 mm 7 W/m2
21:13 19.1 °C 14.8 °C 1024.6 hPa NW 8 km/h 14.5 km/h 76 % 0 mm 5 W/m2
21:18 18.9 °C 14.8 °C 1024.6 hPa NW 8 km/h 12.9 km/h 77 % 0 mm 5 W/m2
21:23 18.8 °C 14.9 °C 1024.6 hPa NW 6.4 km/h 11.3 km/h 78 % 0 mm 0 W/m2
21:28 18.6 °C 14.7 °C 1024.6 hPa NW 4.8 km/h 9.7 km/h 78 % 0 mm 0 W/m2
21:33 18.5 °C 14.8 °C 1024.6 hPa NW 4.8 km/h 12.9 km/h 79 % 0 mm 0 W/m2
21:38 18.3 °C 14.6 °C 1024.6 hPa NW 6.4 km/h 12.9 km/h 79 % 0 mm 0 W/m2
21:43 18.2 °C 14.7 °C 1024.6 hPa NW 6.4 km/h 12.9 km/h 80 % 0 mm 0 W/m2
21:48 18 °C 14.5 °C 1024.6 hPa NW 6.4 km/h 12.9 km/h 80 % 0 mm 0 W/m2
21:53 17.8 °C 14.5 °C 1024.6 hPa NW 6.4 km/h 11.3 km/h 81 % 0 mm 0 W/m2
21:58 17.7 °C 14.4 °C 1024.6 hPa WNW 3.2 km/h 11.3 km/h 81 % 0 mm 0 W/m2
22:03 17.6 °C 14.3 °C 1024.9 hPa WNW 1.6 km/h 6.4 km/h 81 % 0 mm 0 W/m2
22:08 17.5 °C 14.4 °C 1024.9 hPa WNW 1.6 km/h 8 km/h 82 % 0 mm 0 W/m2
22:13 17.4 °C 14.3 °C 1024.9 hPa NW 1.6 km/h 8 km/h 82 % 0 mm 0 W/m2
22:18 17.3 °C 14.2 °C 1024.9 hPa NW 1.6 km/h 8 km/h 82 % 0 mm 0 W/m2
22:23 17.2 °C 14.3 °C 1024.9 hPa WNW 1.6 km/h 8 km/h 83 % 0 mm 0 W/m2
22:28 17.1 °C 14.2 °C 1024.6 hPa West 4.8 km/h 11.3 km/h 83 % 0 mm 0 W/m2
22:33 16.9 °C 14 °C 1024.6 hPa West 4.8 km/h 11.3 km/h 83 % 0 mm 0 W/m2
22:38 16.8 °C 14.1 °C 1024.6 hPa West 4.8 km/h 11.3 km/h 84 % 0 mm 0 W/m2
22:43 16.7 °C 14 °C 1024.6 hPa West 4.8 km/h 9.7 km/h 84 % 0 mm 0 W/m2
22:48 16.6 °C 13.9 °C 1024.6 hPa West 3.2 km/h 9.7 km/h 84 % 0 mm 0 W/m2
22:53 16.4 °C 13.7 °C 1024.9 hPa West 1.6 km/h 8 km/h 84 % 0 mm 0 W/m2
22:58 16.2 °C 13.7 °C 1024.6 hPa West 1.6 km/h 8 km/h 85 % 0 mm 0 W/m2
23:03 16.1 °C 13.6 °C 1024.9 hPa Calm   8 km/h 85 % 0 mm 0 W/m2
23:08 15.9 °C 13.6 °C 1024.6 hPa Calm   3.2 km/h 86 % 0 mm 0 W/m2
23:13 15.7 °C 13.4 °C 1024.9 hPa Calm   3.2 km/h 86 % 0 mm 0 W/m2
23:18 15.6 °C 13.4 °C 1024.9 hPa Calm   4.8 km/h 87 % 0 mm 0 W/m2
23:23 15.5 °C 13.3 °C 1024.9 hPa West 1.6 km/h 4.8 km/h 87 % 0 mm 0 W/m2
23:29 15.4 °C 13.4 °C 1024.9 hPa West 1.6 km/h 4.8 km/h 88 % 0 mm 0 W/m2
23:34 15.3 °C 13.3 °C 1024.9 hPa West 1.6 km/h 4.8 km/h 88 % 0 mm 0 W/m2
23:39 15.2 °C 13.2 °C 1024.9 hPa Calm   1.6 km/h 88 % 0 mm 0 W/m2
23:44 15.1 °C 13.1 °C 1024.9 hPa West 1.6 km/h 6.4 km/h 88 % 0 mm 0 W/m2
23:49 15 °C 13.2 °C 1024.6 hPa West 3.2 km/h 8 km/h 89 % 0 mm 0 W/m2
23:54 14.9 °C 13.1 °C 1024.6 hPa West 4.8 km/h 9.7 km/h 89 % 0 mm 0 W/m2
23:59 14.8 °C 13 °C 1024.6 hPa WNW 6.4 km/h 9.7 km/h 89 % 0 mm 0 W/m2
Delerius-Weather
Compliments of Weather Underground - 2.25 mb

Data updates at regular intervals.